Time;durP1;ratioP1;P1;durP2;ratioP2;P2;SDS_P1;SDS_P2;PMS_P1;PMS_P2;Temp;Humidity;BMP_temperature;BMP_pressure;BME280_temperature;BME280_humidity;BME280_pressure;Samples;Min_cycle;Max_cycle;Signal;HPM_P1;HPM_P2
2022/01/07 00:00:56;;;;;;;21.17;12.00;;;;;;;0.90;100.00;90707.47;4973173;28;20041;-69
2022/01/07 00:03:22;;;;;;;20.83;11.27;;;;;;;0.84;100.00;90710.34;4973008;28;20026;-69
2022/01/07 00:05:48;;;;;;;24.00;12.88;;;;;;;0.78;100.00;90691.19;4972983;28;20043;-69
2022/01/07 00:08:14;;;;;;;23.60;12.70;;;;;;;0.82;100.00;90710.59;4973153;28;20505;-69
2022/01/07 00:10:40;;;;;;;25.23;13.05;;;;;;;0.79;100.00;90718.16;4973041;28;20066;-69
2022/01/07 00:13:05;;;;;;;35.97;17.25;;;;;;;0.71;100.00;90718.66;4972900;28;20145;-69
2022/01/07 00:15:31;;;;;;;31.55;17.38;;;;;;;0.59;100.00;90719.63;4972930;28;20031;-69
2022/01/07 00:17:58;;;;;;;34.58;18.08;;;;;;;0.52;100.00;90716.47;4972950;28;20030;-69
2022/01/07 00:20:24;;;;;;;35.03;18.73;;;;;;;0.58;100.00;90722.50;4972870;28;20031;-69
2022/01/07 00:22:50;;;;;;;36.25;18.85;;;;;;;0.60;100.00;90733.50;4972966;28;20050;-69
2022/01/07 00:25:16;;;;;;;34.97;18.58;;;;;;;0.63;100.00;90727.75;4972797;28;20524;-69
2022/01/07 00:27:43;;;;;;;30.60;17.05;;;;;;;0.56;100.00;90737.69;4972807;28;20548;-69
2022/01/07 00:30:12;;;;;;;35.58;17.77;;;;;;;0.52;100.00;90736.63;4972789;28;20043;-69
2022/01/07 00:32:38;;;;;;;33.50;17.30;;;;;;;0.54;100.00;90742.38;4972608;28;20051;-69
2022/01/07 00:35:04;;;;;;;33.03;17.05;;;;;;;0.59;100.00;90737.16;4972688;28;20070;-69
2022/01/07 00:37:30;;;;;;;27.67;16.98;;;;;;;0.58;100.00;90735.59;4972660;28;20030;-69
2022/01/07 00:39:56;;;;;;;31.08;16.77;;;;;;;0.60;100.00;90739.53;4972662;28;20046;-69
2022/01/07 00:42:21;;;;;;;28.65;16.13;;;;;;;0.71;100.00;90752.69;4972403;28;20093;-69
2022/01/07 00:44:47;;;;;;;33.45;16.85;;;;;;;0.72;100.00;90751.66;4972537;28;20027;-69
2022/01/07 00:47:12;;;;;;;33.30;17.02;;;;;;;0.87;100.00;90754.34;4972559;28;20460;-69
2022/01/07 00:49:38;;;;;;;31.02;15.55;;;;;;;0.95;100.00;90751.25;4972531;28;20041;-67
2022/01/07 00:52:04;;;;;;;32.17;16.92;;;;;;;1.02;100.00;90745.78;4972422;28;20034;-69
2022/01/07 00:54:29;;;;;;;30.58;16.52;;;;;;;1.05;100.00;90750.50;4972458;28;20030;-69
2022/01/07 00:56:55;;;;;;;26.88;14.55;;;;;;;1.05;100.00;90751.28;4972473;28;20026;-69
2022/01/07 00:59:21;;;;;;;18.38;11.27;;;;;;;1.05;100.00;90734.78;4972423;28;20034;-69
2022/01/07 01:01:47;;;;;;;18.42;9.90;;;;;;;1.15;100.00;90740.06;4972477;28;20027;-69
2022/01/07 01:04:13;;;;;;;15.52;9.30;;;;;;;1.20;100.00;90732.22;4972209;28;20035;-69
2022/01/07 01:06:41;;;;;;;15.35;9.57;;;;;;;1.33;100.00;90737.00;4986943;28;20501;-69
2022/01/07 01:09:08;;;;;;;18.38;10.07;;;;;;;1.47;100.00;90742.53;4972344;28;20097;-69
2022/01/07 01:11:34;;;;;;;19.00;11.27;;;;;;;1.53;100.00;90741.50;4987332;28;20026;-69
2022/01/07 01:14:00;;;;;;;17.83;10.50;;;;;;;1.73;100.00;90740.75;4972174;28;20401;-69
2022/01/07 01:16:26;;;;;;;14.40;9.45;;;;;;;1.74;100.00;90732.66;4972200;28;20030;-69
2022/01/07 01:18:51;;;;;;;21.55;11.40;;;;;;;1.83;100.00;90739.97;4972281;28;20463;-69
2022/01/07 01:21:17;;;;;;;19.45;10.40;;;;;;;1.85;100.00;90728.19;4972187;28;20030;-67
2022/01/07 01:23:45;;;;;;;19.38;11.38;;;;;;;1.87;100.00;90733.94;4972075;28;20034;-69
2022/01/07 01:26:12;;;;;;;19.98;10.88;;;;;;;1.69;100.00;90719.50;4972209;28;20026;-69
2022/01/07 01:28:38;;;;;;;17.35;10.93;;;;;;;1.74;100.00;90739.72;4972695;28;20023;-69
2022/01/07 01:31:04;;;;;;;23.48;12.85;;;;;;;1.79;100.00;90734.47;4970912;28;20038;-69
2022/01/07 01:33:30;;;;;;;24.27;13.63;;;;;;;1.98;100.00;90737.38;4972020;28;20022;-67
2022/01/07 01:35:55;;;;;;;25.60;14.68;;;;;;;1.97;100.00;90733.97;4972120;28;20031;-69
2022/01/07 01:38:21;;;;;;;28.48;14.45;;;;;;;2.03;100.00;90732.91;4975627;28;20385;-69
2022/01/07 01:40:46;;;;;;;27.80;16.45;;;;;;;1.92;100.00;90747.09;4975821;28;20386;-69
2022/01/07 01:43:12;;;;;;;21.42;13.35;;;;;;;1.73;100.00;90735.50;4975566;28;20066;-69
2022/01/07 01:45:37;;;;;;;21.05;12.70;;;;;;;1.61;100.00;90740.22;4975710;28;20034;-69
2022/01/07 01:48:03;;;;;;;19.17;12.18;;;;;;;1.57;100.00;90749.63;4975656;28;20059;-69
2022/01/07 01:50:29;;;;;;;23.70;11.93;;;;;;;1.43;100.00;90731.00;4975483;28;20097;-69
2022/01/07 01:52:56;;;;;;;23.45;13.43;;;;;;;1.55;100.00;90754.34;4975544;28;20037;-69
2022/01/07 01:55:25;;;;;;;22.80;13.25;;;;;;;1.60;100.00;90757.00;4975538;28;20034;-69
2022/01/07 01:57:52;;;;;;;20.02;12.05;;;;;;;1.59;100.00;90745.72;4975503;28;20489;-69
2022/01/07 02:00:19;;;;;;;26.35;12.93;;;;;;;1.63;100.00;90743.38;4975373;28;20117;-69
2022/01/07 02:02:45;;;;;;;22.15;12.27;;;;;;;1.78;100.00;90743.38;4975326;28;20034;-69
2022/01/07 02:05:11;;;;;;;22.10;11.80;;;;;;;1.93;100.00;90758.38;4975046;28;20038;-69
2022/01/07 02:07:39;;;;;;;21.92;12.63;;;;;;;2.00;100.00;90757.03;4975319;28;20084;-68
2022/01/07 02:10:07;;;;;;;22.63;12.82;;;;;;;2.09;100.00;90755.50;4975272;28;20027;-69
2022/01/07 02:12:33;;;;;;;22.33;12.75;;;;;;;2.17;100.00;90750.75;4975180;28;20030;-69
2022/01/07 02:14:58;;;;;;;24.38;11.60;;;;;;;2.13;100.00;90754.97;4975190;28;20387;-69
2022/01/07 02:17:26;;;;;;;18.52;11.45;;;;;;;2.09;100.00;90745.00;4975180;28;20118;-69
2022/01/07 02:19:56;;;;;;;21.35;10.63;;;;;;;2.06;100.00;90750.00;4975103;28;20051;-69
2022/01/07 02:22:23;;;;;;;18.60;11.75;;;;;;;2.08;100.00;90755.75;4974938;28;20026;-68
2022/01/07 02:24:51;;;;;;;19.70;11.38;;;;;;;2.10;100.00;90757.06;4974968;28;20125;-69
2022/01/07 02:27:17;;;;;;;20.83;11.43;;;;;;;2.07;100.00;90754.19;4974981;28;20041;-69
2022/01/07 02:29:45;;;;;;;39.60;13.48;;;;;;;2.12;100.00;90756.03;4974852;28;20102;-69
2022/01/07 02:32:11;;;;;;;24.40;13.40;;;;;;;2.14;100.00;90751.28;4974793;28;20034;-68
2022/01/07 02:34:37;;;;;;;23.92;12.90;;;;;;;2.21;100.00;90763.13;4974815;28;20050;-69
2022/01/07 02:37:04;;;;;;;20.20;11.88;;;;;;;2.24;100.00;90764.44;4973548;28;20035;-68
2022/01/07 02:39:29;;;;;;;22.08;13.05;;;;;;;2.26;100.00;90764.94;4973472;28;20117;-69
2022/01/07 02:41:55;;;;;;;20.63;12.23;;;;;;;2.21;100.00;90767.56;4974647;28;20118;-69
2022/01/07 02:44:20;;;;;;;22.05;12.25;;;;;;;2.07;100.00;90754.97;4974551;28;20019;-69
2022/01/07 02:46:46;;;;;;;24.80;14.13;;;;;;;2.01;100.00;90773.56;4974640;28;20035;-68
2022/01/07 02:49:14;;;;;;;25.25;14.88;;;;;;;1.93;100.00;90777.50;4973369;28;20023;-69
2022/01/07 02:51:40;;;;;;;28.48;15.38;;;;;;;1.79;100.00;90771.19;4974769;28;20046;-68
2022/01/07 02:54:07;;;;;;;30.23;15.73;;;;;;;1.77;100.00;90776.69;4974377;28;20019;-69
2022/01/07 02:56:33;;;;;;;34.47;16.35;;;;;;;1.73;100.00;90793.19;4974396;28;20481;-69
2022/01/07 02:59:00;;;;;;;27.05;15.20;;;;;;;1.83;100.00;90790.59;4974339;28;20053;-69
2022/01/07 03:01:25;;;;;;;34.13;15.48;;;;;;;1.65;100.00;90797.09;4974337;28;20065;-69
2022/01/07 03:03:51;;;;;;;34.63;16.75;;;;;;;1.71;100.00;90805.78;4974148;28;20054;-68
2022/01/07 03:06:17;;;;;;;31.67;15.73;;;;;;;1.75;100.00;90809.47;5130713;23;20125;-65
2022/01/07 03:08:47;;;;;;;28.70;15.88;;;;;;;1.70;100.00;90807.59;4993333;28;20091;-65
2022/01/07 03:11:12;;;;;;;27.58;14.68;;;;;;;1.73;100.00;90811.53;4993333;28;20046;-65
2022/01/07 03:13:38;;;;;;;27.88;15.32;;;;;;;1.70;100.00;90819.94;4993304;28;20080;-65
2022/01/07 03:16:04;;;;;;;32.95;15.75;;;;;;;1.72;100.00;90823.88;4993198;28;20080;-65
2022/01/07 03:18:29;;;;;;;29.05;14.48;;;;;;;1.74;100.00;90831.50;4993482;28;20034;-66
2022/01/07 03:20:55;;;;;;;30.55;15.00;;;;;;;1.66;100.00;90826.75;4993217;28;20419;-65
2022/01/07 03:23:20;;;;;;;28.48;15.32;;;;;;;1.70;100.00;90830.41;4993011;28;20037;-65
2022/01/07 03:25:46;;;;;;;30.55;16.25;;;;;;;1.73;100.00;90835.13;4993005;28;20113;-65
2022/01/07 03:28:12;;;;;;;30.20;15.23;;;;;;;1.69;100.00;90834.88;4992917;28;20031;-65
2022/01/07 03:30:39;;;;;;;31.60;15.55;;;;;;;1.68;100.00;90835.91;4992913;28;20034;-65
2022/01/07 03:33:05;;;;;;;32.40;16.85;;;;;;;1.60;100.00;90835.66;4992832;28;20164;-65
2022/01/07 03:35:31;;;;;;;33.60;16.52;;;;;;;1.52;100.00;90830.88;4992802;28;20077;-65
2022/01/07 03:37:56;;;;;;;38.10;17.42;;;;;;;1.46;100.00;90830.06;4991526;28;20085;-65
2022/01/07 03:40:22;;;;;;;30.30;15.15;;;;;;;1.48;100.00;90828.00;4991445;28;20555;-65
2022/01/07 03:42:50;;;;;;;25.88;14.45;;;;;;;1.61;100.00;90831.97;4992695;28;20117;-65
2022/01/07 03:45:16;;;;;;;25.42;14.85;;;;;;;1.62;100.00;90833.56;4992575;28;20034;-65
2022/01/07 03:47:42;;;;;;;33.17;15.25;;;;;;;1.61;100.00;90830.13;4992738;28;20041;-65
2022/01/07 03:50:10;;;;;;;29.33;16.50;;;;;;;1.64;100.00;90827.00;4992503;28;20030;-65
2022/01/07 03:52:36;;;;;;;29.63;15.15;;;;;;;1.67;100.00;90830.94;4992778;28;20027;-65
2022/01/07 03:55:05;;;;;;;31.38;16.80;;;;;;;1.62;100.00;90829.09;4992328;28;20030;-65
2022/01/07 03:57:30;;;;;;;31.80;16.20;;;;;;;1.52;100.00;90828.25;4992664;28;20481;-65
2022/01/07 03:59:56;;;;;;;29.52;15.25;;;;;;;1.47;100.00;90827.19;4991872;28;20054;-65
2022/01/07 04:02:22;;;;;;;30.75;15.38;;;;;;;1.48;100.00;90828.78;4992311;28;20451;-65
2022/01/07 04:04:47;;;;;;;34.10;16.15;;;;;;;1.54;100.00;90832.19;4992110;28;20183;-65
2022/01/07 04:07:13;;;;;;;36.10;17.42;;;;;;;1.59;100.00;90834.06;4992329;28;20030;-65
2022/01/07 04:09:40;;;;;;;50.47;23.98;;;;;;;1.63;100.00;90829.88;4992288;28;20038;-65
2022/01/07 04:12:06;;;;;;;40.78;19.25;;;;;;;1.59;100.00;90840.09;4992238;28;20033;-65
2022/01/07 04:14:32;;;;;;;38.83;19.65;;;;;;;1.44;100.00;90840.03;4992042;28;20030;-65
2022/01/07 04:16:59;;;;;;;37.03;18.48;;;;;;;1.32;100.00;90832.38;4992176;28;20030;-65
2022/01/07 04:19:24;;;;;;;39.30;19.80;;;;;;;1.22;100.00;90840.16;4992314;28;20122;-65
2022/01/07 04:21:50;;;;;;;45.83;21.67;;;;;;;1.11;100.00;90838.56;4992064;28;20113;-65
2022/01/07 04:24:17;;;;;;;48.67;23.48;;;;;;;1.10;100.00;90842.97;4991881;28;20031;-65
2022/01/07 04:26:42;;;;;;;52.15;25.20;;;;;;;1.17;100.00;90845.41;4992032;28;20106;-65
2022/01/07 04:29:08;;;;;;;45.17;21.55;;;;;;;1.23;100.00;90846.19;4991865;28;20450;-65
2022/01/07 04:31:34;;;;;;;44.40;21.67;;;;;;;1.32;100.00;90842.84;4991926;28;20031;-65
2022/01/07 04:34:00;;;;;;;41.50;20.98;;;;;;;1.46;100.00;90851.03;4991723;28;20045;-66
2022/01/07 04:36:25;;;;;;;48.58;21.50;;;;;;;1.43;100.00;90849.72;4991673;28;20088;-65
2022/01/07 04:38:51;;;;;;;47.33;22.48;;;;;;;1.36;100.00;90843.91;4991773;28;20546;-65
2022/01/07 04:41:16;;;;;;;58.00;26.05;;;;;;;1.32;100.00;90848.09;4991785;28;20484;-64
2022/01/07 04:43:42;;;;;;;54.78;27.02;;;;;;;1.24;100.00;90832.84;4991723;28;20026;-65
2022/01/07 04:46:07;;;;;;;56.67;23.92;;;;;;;1.40;100.00;90847.59;4991564;28;20030;-65
2022/01/07 04:48:33;;;;;;;58.03;23.70;;;;;;;1.46;100.00;90838.72;4991645;28;20411;-65
2022/01/07 04:50:58;;;;;;;53.50;24.15;;;;;;;1.48;100.00;90851.56;4991629;28;20033;-65
2022/01/07 04:53:26;;;;;;;92.55;42.83;;;;;;;1.62;100.00;90849.28;4991605;28;20038;-65
2022/01/07 04:55:53;;;;;;;42.70;19.67;;;;;;;1.60;100.00;90859.25;4991562;28;20065;-65
2022/01/07 04:58:20;;;;;;;32.60;16.17;;;;;;;1.60;100.00;90867.09;4991589;28;20058;-65
2022/01/07 05:00:46;;;;;;;49.95;24.38;;;;;;;1.64;100.00;90862.91;4991181;28;20447;-65
2022/01/07 05:03:13;;;;;;;38.25;17.85;;;;;;;1.55;100.00;90869.69;4991366;28;20041;-65
2022/01/07 05:05:39;;;;;;;54.13;27.40;;;;;;;1.59;100.00;90868.16;4991196;28;20042;-65
2022/01/07 05:08:06;;;;;;;39.40;21.30;;;;;;;1.48;100.00;90864.69;4991348;28;20109;-65
2022/01/07 05:10:32;;;;;;;29.00;15.23;;;;;;;1.54;100.00;90876.75;4991616;28;20109;-65
2022/01/07 05:12:59;;;;;;;29.48;15.77;;;;;;;1.37;100.00;90869.06;4994536;28;20113;-65
2022/01/07 05:15:24;;;;;;;34.35;18.05;;;;;;;1.30;100.00;90865.13;4995203;28;20782;-65
2022/01/07 05:17:50;;;;;;;32.67;17.10;;;;;;;1.36;100.00;90872.75;4995319;28;20030;-66
2022/01/07 05:20:16;;;;;;;28.88;14.35;;;;;;;1.28;100.00;90870.63;4994007;28;20034;-65
2022/01/07 05:22:43;;;;;;;32.13;15.38;;;;;;;1.36;100.00;90885.06;4995349;28;20030;-65
2022/01/07 05:25:11;;;;;;;27.23;13.48;;;;;;;1.36;100.00;90885.84;4995151;28;20033;-65
2022/01/07 05:27:37;;;;;;;35.60;18.63;;;;;;;1.37;100.00;90882.19;4995215;28;20049;-65
2022/01/07 05:30:04;;;;;;;21.63;10.98;;;;;;;1.46;100.00;90882.50;4995354;28;20484;-66
2022/01/07 05:32:30;;;;;;;29.80;15.02;;;;;;;1.48;100.00;90889.06;4994996;28;20030;-65
2022/01/07 05:34:56;;;;;;;28.83;14.65;;;;;;;1.56;100.00;90890.41;4994796;28;20036;-65
2022/01/07 05:37:21;;;;;;;23.10;13.00;;;;;;;1.49;100.00;90888.03;4995079;28;20026;-65
2022/01/07 05:39:47;;;;;;;19.95;12.05;;;;;;;1.42;100.00;90903.19;4994988;28;20022;-65
2022/01/07 05:42:12;;;;;;;26.65;13.73;;;;;;;1.53;100.00;90900.59;4994828;28;20050;-65
2022/01/07 05:44:38;;;;;;;27.33;14.60;;;;;;;1.65;100.00;90901.19;4994836;28;20033;-65
2022/01/07 05:47:04;;;;;;;36.92;19.80;;;;;;;1.67;100.00;90904.34;4994740;28;20022;-66
2022/01/07 05:49:29;;;;;;;36.63;19.38;;;;;;;1.63;100.00;90913.78;4994714;28;20037;-65
2022/01/07 05:51:55;;;;;;;23.08;13.80;;;;;;;1.60;100.00;90912.47;4994760;28;20038;-65
2022/01/07 05:54:20;;;;;;;23.20;12.07;;;;;;;1.50;100.00;90912.41;4993164;28;20512;-65
2022/01/07 05:56:46;;;;;;;28.05;14.00;;;;;;;1.44;100.00;90911.59;4994683;28;20026;-65
2022/01/07 05:59:12;;;;;;;62.08;29.55;;;;;;;1.42;100.00;90912.88;4994573;28;20117;-65
2022/01/07 06:01:37;;;;;;;110.93;51.55;;;;;;;1.42;100.00;90918.09;4994616;28;20031;-66
2022/01/07 06:04:03;;;;;;;36.83;19.08;;;;;;;1.46;100.00;90916.56;4994349;28;20038;-65
2022/01/07 06:06:28;;;;;;;21.80;12.25;;;;;;;1.43;100.00;90917.88;4994173;28;20054;-65
2022/01/07 06:08:54;;;;;;;37.72;16.73;;;;;;;1.46;100.00;90927.84;4994466;28;20084;-65
2022/01/07 06:11:19;;;;;;;18.90;9.90;;;;;;;1.43;100.00;90920.50;4994494;28;20132;-65
2022/01/07 06:13:45;;;;;;;36.13;18.00;;;;;;;1.51;100.00;90927.06;4994249;28;20031;-65
2022/01/07 06:16:10;;;;;;;28.58;15.27;;;;;;;1.59;100.00;90928.44;4994187;28;20060;-65
2022/01/07 06:18:50;;;;;;;33.85;17.17;;;;;;;1.59;100.00;90928.44;4994177;28;20499;-65
2022/01/07 06:21:16;;;;;;;19.00;11.27;;;;;;;1.58;100.00;90926.84;4994057;28;20556;-66
2022/01/07 06:23:42;;;;;;;18.17;9.75;;;;;;;1.50;100.00;90926.28;4993996;28;20026;-65
2022/01/07 06:26:07;;;;;;;18.95;10.63;;;;;;;1.54;100.00;90928.41;4993978;28;20408;-65
2022/01/07 06:28:33;;;;;;;17.67;11.00;;;;;;;1.65;100.00;90937.91;4994227;28;20065;-65
2022/01/07 06:30:58;;;;;;;14.35;8.13;;;;;;;1.81;100.00;90926.44;4993813;28;20022;-65
2022/01/07 06:33:24;;;;;;;16.52;7.93;;;;;;;1.75;100.00;90927.47;4993763;28;20053;-65
2022/01/07 06:35:49;;;;;;;18.15;10.18;;;;;;;1.79;100.00;90933.78;4993830;28;20033;-65
2022/01/07 06:38:15;;;;;;;16.42;8.90;;;;;;;2.02;100.00;90933.34;4993717;28;20121;-65
2022/01/07 06:40:40;;;;;;;14.43;8.75;;;;;;;2.05;100.00;90926.78;4993592;28;20027;-65
2022/01/07 06:43:06;;;;;;;22.63;11.52;;;;;;;1.97;100.00;90930.72;4993579;28;20472;-65
2022/01/07 06:45:31;;;;;;;16.55;8.23;;;;;;;2.00;100.00;90935.44;4993562;28;20023;-65
2022/01/07 06:47:57;;;;;;;17.52;9.00;;;;;;;1.89;100.00;90933.03;4993685;28;20029;-65
2022/01/07 06:50:23;;;;;;;19.30;9.88;;;;;;;2.01;100.00;90934.41;4993721;28;20043;-65
2022/01/07 06:52:48;;;;;;;17.25;9.18;;;;;;;2.23;100.00;90939.47;4993582;28;20026;-65
2022/01/07 06:55:14;;;;;;;13.65;7.80;;;;;;;2.47;100.00;90939.78;4993368;28;20022;-65
2022/01/07 06:57:39;;;;;;;39.13;21.25;;;;;;;2.69;100.00;90947.47;4993441;28;20109;-65
2022/01/07 07:00:05;;;;;;;21.63;10.65;;;;;;;2.65;100.00;90939.28;4993415;28;20034;-65
2022/01/07 07:02:31;;;;;;;31.08;15.48;;;;;;;2.24;100.00;90927.16;4993202;28;20174;-65
2022/01/07 07:04:56;;;;;;;34.20;16.48;;;;;;;2.38;100.00;90930.84;4992916;28;20618;-65
2022/01/07 07:07:22;;;;;;;42.63;22.20;;;;;;;2.47;100.00;90934.53;4993283;28;20031;-65
2022/01/07 07:09:47;;;;;;;23.98;13.25;;;;;;;2.40;100.00;90939.25;4993216;28;20026;-65
2022/01/07 07:12:13;;;;;;;33.00;17.23;;;;;;;2.39;100.00;90932.44;4993196;28;20026;-65
2022/01/07 07:14:38;;;;;;;28.77;16.00;;;;;;;2.43;100.00;90935.31;4993045;28;20045;-65
2022/01/07 07:17:04;;;;;;;28.45;15.40;;;;;;;2.66;100.00;90940.88;4993269;28;20125;-65
2022/01/07 07:19:30;;;;;;;28.20;16.23;;;;;;;2.61;100.00;90940.88;4993102;28;20042;-65
2022/01/07 07:21:55;;;;;;;24.67;13.80;;;;;;;2.72;100.00;90931.19;4993047;28;20041;-64
2022/01/07 07:24:21;;;;;;;27.48;15.27;;;;;;;2.48;100.00;90930.88;4992785;28;20033;-65
2022/01/07 07:26:46;;;;;;;30.38;17.35;;;;;;;2.63;100.00;90932.72;4992929;28;20090;-65
2022/01/07 07:29:12;;;;;;;37.00;22.08;;;;;;;2.55;100.00;90931.41;4993018;28;20081;-65
2022/01/07 07:31:39;;;;;;;42.95;24.30;;;;;;;2.39;100.00;90933.22;4992871;28;20054;-65
2022/01/07 07:36:49;;;;;;;40.25;21.77;;;;;;;2.48;100.00;90932.69;4992131;28;21425;-65
2022/01/07 07:39:15;;;;;;;36.30;20.27;;;;;;;2.44;100.00;90932.44;4992527;28;20062;-66
2022/01/07 07:41:42;;;;;;;32.95;17.17;;;;;;;2.52;100.00;90931.13;4992480;28;20038;-66
2022/01/07 07:44:08;;;;;;;39.85;19.55;;;;;;;2.57;100.00;90924.06;4992315;28;20026;-66
2022/01/07 07:46:35;;;;;;;37.85;19.45;;;;;;;2.70;100.00;90902.56;5007468;28;20026;-66
2022/01/07 07:49:03;;;;;;;36.42;22.38;;;;;;;2.72;100.00;90909.38;4992346;28;20435;-66
2022/01/07 07:51:29;;;;;;;51.42;25.67;;;;;;;2.66;100.00;90919.06;4992307;28;20035;-66
2022/01/07 07:53:57;;;;;;;42.17;20.42;;;;;;;2.66;100.00;90919.88;4991798;28;20173;-66
2022/01/07 07:56:23;;;;;;;30.00;17.45;;;;;;;2.62;100.00;90924.06;4992228;28;20054;-65
2022/01/07 07:58:49;;;;;;;39.58;20.40;;;;;;;2.55;100.00;90926.16;4987885;28;20506;-66
2022/01/07 08:01:17;;;;;;;48.78;23.38;;;;;;;2.55;100.00;90931.41;4991578;28;20026;-68
2022/01/07 08:03:44;;;;;;;26.02;17.52;;;;;;;2.42;100.00;90921.41;4991862;28;20030;-70
2022/01/07 08:06:09;;;;;;;33.38;16.33;;;;;;;2.49;100.00;90929.81;4991952;28;20045;-69
2022/01/07 08:08:38;;;;;;;29.67;16.95;;;;;;;2.60;100.00;90928.78;4992018;28;20046;-69
2022/01/07 08:11:08;;;;;;;36.55;19.50;;;;;;;2.61;100.00;90927.75;4992129;28;20034;-72
2022/01/07 08:16:23;;;;;;;64.03;21.00;;;;;;;2.78;100.00;90924.88;4972893;28;20046;-65
2022/01/07 08:18:53;;;;;;;44.08;26.45;;;;;;;3.06;100.00;90925.41;4991461;28;20038;-65
2022/01/07 08:21:20;;;;;;;39.38;22.15;;;;;;;2.97;100.00;90920.69;4991724;28;20105;-65
2022/01/07 08:23:46;;;;;;;33.92;22.25;;;;;;;2.77;100.00;90923.28;4991582;28;20034;-65
2022/01/07 08:26:14;;;;;;;39.03;23.90;;;;;;;2.90;100.00;90928.03;4991568;28;20038;-65
2022/01/07 08:28:45;;;;;;;41.70;22.48;;;;;;;3.09;100.00;90930.94;4992004;28;20084;-65
2022/01/07 08:31:25;;;;;;;41.67;15.07;;;;;;;3.18;100.00;90920.69;4991821;28;20501;-65
2022/01/07 08:36:36;;;;;;;29.98;16.70;;;;;;;3.07;100.00;90921.75;4991556;28;20069;-66
2022/01/07 08:39:06;;;;;;;85.47;39.55;;;;;;;2.99;100.00;90928.28;4991828;28;20046;-66
2022/01/07 08:41:33;;;;;;;30.92;18.55;;;;;;;2.98;100.00;90913.59;4991823;28;20046;-66
2022/01/07 08:43:59;;;;;;;43.67;18.85;;;;;;;3.06;100.00;90915.69;4991684;28;20054;-67
2022/01/07 08:46:25;;;;;;;24.67;12.23;;;;;;;3.30;100.00;90908.84;4991684;28;20579;-67
2022/01/07 08:48:51;;;;;;;39.42;21.50;;;;;;;3.42;100.00;90918.28;4991670;28;20038;-65
2022/01/07 08:51:17;;;;;;;52.25;26.17;;;;;;;3.45;100.00;90920.38;4991683;28;20039;-65
2022/01/07 08:53:43;;;;;;;37.22;18.05;;;;;;;3.37;100.00;90919.09;4991531;28;20104;-65
2022/01/07 08:56:09;;;;;;;39.38;22.23;;;;;;;3.57;100.00;90910.38;4991630;28;20471;-64
2022/01/07 08:58:35;;;;;;;24.40;14.32;;;;;;;3.79;100.00;90913.50;5006655;28;20081;-64
2022/01/07 09:12:09;;;;;;;22.50;12.90;;;;;;;3.91;100.00;90905.28;5080218;27;1395302;-66
2022/01/07 09:14:35;;;;;;;31.83;16.08;;;;;;;3.85;100.00;90909.78;5109030;28;20403;-67
2022/01/07 09:17:00;;;;;;;97.45;46.13;;;;;;;3.77;100.00;90910.31;5108769;28;20032;-64
2022/01/07 09:19:27;;;;;;;218.30;113.35;;;;;;;3.94;100.00;90906.59;5108540;28;20072;-64
2022/01/07 09:21:55;;;;;;;27.25;16.50;;;;;;;4.01;100.00;90902.63;5108469;28;20076;-65
2022/01/07 09:24:21;;;;;;;17.90;11.80;;;;;;;3.99;100.00;90902.09;5108836;28;20027;-64
2022/01/07 09:26:48;;;;;;;22.08;11.57;;;;;;;3.94;100.00;90903.94;5108645;28;20047;-67
2022/01/07 09:29:14;;;;;;;24.58;16.10;;;;;;;4.10;100.00;90893.13;5108498;28;20364;-65
2022/01/07 09:31:39;;;;;;;24.27;10.40;;;;;;;4.04;100.00;90909.97;5108256;28;20020;-65
2022/01/07 09:34:06;;;;;;;30.90;9.75;;;;;;;3.80;100.00;90904.53;5108427;28;20028;-65
2022/01/07 09:36:32;;;;;;;18.92;9.25;;;;;;;3.92;100.00;90907.63;5108378;28;20169;-65
2022/01/07 09:38:58;;;;;;;24.48;11.45;;;;;;;3.84;100.00;90905.56;5108104;28;20416;-65
2022/01/07 09:41:24;;;;;;;26.33;11.80;;;;;;;3.94;100.00;90904.72;5107785;28;20137;-65
2022/01/07 09:43:50;;;;;;;15.00;8.13;;;;;;;4.43;100.00;90899.53;5108177;28;20128;-65
2022/01/07 09:46:18;;;;;;;20.50;9.50;;;;;;;4.32;97.90;90899.84;5108058;28;20032;-65
2022/01/07 09:48:44;;;;;;;25.00;12.85;;;;;;;4.17;99.64;90898.88;5107191;28;20030;-64
2022/01/07 09:51:11;;;;;;;72.78;15.93;;;;;;;4.03;99.93;90897.88;5098925;28;20057;-64
2022/01/07 09:53:37;;;;;;;18.65;8.10;;;;;;;3.97;100.00;90892.91;5107716;28;20043;-65
2022/01/07 09:56:04;;;;;;;27.83;10.85;;;;;;;4.08;100.00;90894.41;5107679;28;20028;-65
2022/01/07 09:58:33;;;;;;;35.17;16.95;;;;;;;4.12;100.00;90892.84;5107690;28;20038;-64
2022/01/07 10:01:19;;;;;;;40.85;17.38;;;;;;;4.32;99.75;90895.38;5107566;28;20508;-65
2022/01/07 10:03:46;;;;;;;33.03;11.63;;;;;;;3.91;100.00;90892.91;5107196;28;20572;-65
2022/01/07 10:06:21;;;;;;;28.13;16.52;;;;;;;3.73;100.00;90898.75;5107481;28;20024;-64
2022/01/07 10:09:03;;;;;;;30.13;16.50;;;;;;;3.78;100.00;90890.06;5107821;28;20098;-65
2022/01/07 10:11:29;;;;;;;57.92;15.45;;;;;;;3.63;100.00;90885.66;5106990;28;20052;-65
2022/01/07 10:14:17;;;;;;;27.25;12.00;;;;;;;3.53;100.00;90883.03;5089135;28;20122;-65
2022/01/07 10:16:50;;;;;;;29.83;11.63;;;;;;;3.74;100.00;90879.28;5107406;28;20040;-64
2022/01/07 10:19:41;;;;;;;28.33;15.57;;;;;;;3.55;100.00;90884.34;5106734;28;20031;-65
2022/01/07 10:22:12;;;;;;;17.88;9.55;;;;;;;3.53;100.00;90873.31;5100037;28;20028;-65
2022/01/07 10:25:00;;;;;;;17.38;7.82;;;;;;;3.58;100.00;90883.00;5093634;28;20040;-64
2022/01/07 10:27:34;;;;;;;58.05;12.70;;;;;;;3.88;100.00;90868.97;5093592;28;20036;-65
2022/01/07 10:30:00;;;;;;;21.52;10.48;;;;;;;4.10;100.00;90861.53;5093414;28;20088;-65
2022/01/07 10:32:31;;;;;;;24.10;9.95;;;;;;;3.90;100.00;90867.66;5093371;28;20040;-65
2022/01/07 10:35:04;;;;;;;38.67;25.08;;;;;;;4.03;100.00;90855.75;5092945;28;20491;-64
2022/01/07 10:37:30;;;;;;;17.30;11.27;;;;;;;4.14;100.00;90857.28;5093369;28;20032;-65
2022/01/07 10:39:55;;;;;;;19.40;12.57;;;;;;;4.21;99.57;90857.78;5093279;28;20058;-65
2022/01/07 10:42:25;;;;;;;28.63;11.02;;;;;;;4.13;100.00;90854.94;5093327;28;20489;-65
2022/01/07 10:44:59;;;;;;;28.10;13.13;;;;;;;4.21;100.00;90851.72;5093277;28;20055;-66
2022/01/07 10:47:25;;;;;;;47.50;13.30;;;;;;;4.07;100.00;90851.53;5093242;28;20485;-66
2022/01/07 10:50:18;;;;;;;28.85;12.75;;;;;;;4.16;100.00;90860.44;5074438;28;20040;-65
2022/01/07 10:52:44;;;;;;;24.05;10.05;;;;;;;4.06;100.00;90855.22;5093286;28;20043;-65
2022/01/07 10:55:12;;;;;;;107.82;27.00;;;;;;;3.95;100.00;90847.66;5093094;28;20032;-65
2022/01/07 10:57:44;;;;;;;28.42;15.73;;;;;;;3.96;100.00;90836.84;5092889;28;20044;-65
2022/01/07 11:00:11;;;;;;;17.83;8.57;;;;;;;4.00;100.00;90845.00;5092983;28;20050;-65
2022/01/07 11:02:37;;;;;;;25.77;14.80;;;;;;;4.14;100.00;90840.72;5093005;28;20036;-65
2022/01/07 11:05:03;;;;;;;47.40;19.08;;;;;;;4.19;100.00;90838.03;5092494;28;20627;-65
2022/01/07 11:07:29;;;;;;;46.25;18.05;;;;;;;4.09;100.00;90844.13;5091886;28;20055;-65
2022/01/07 11:22:48;;;;;;;37.03;17.23;;;;;;;4.44;92.48;90829.22;5128826;27;20417;-64
2022/01/07 11:25:15;;;;;;;23.38;12.00;;;;;;;4.15;96.02;90834.38;5127886;28;20031;-64
2022/01/07 11:27:58;;;;;;;14.38;9.35;;;;;;;4.21;96.78;90825.38;5128360;28;20458;-64
2022/01/07 11:30:28;;;;;;;38.87;15.17;;;;;;;4.17;96.47;90834.91;5128676;27;20058;-64
2022/01/07 11:32:54;;;;;;;54.45;18.70;;;;;;;4.13;96.08;90828.59;5128241;27;20520;-65
2022/01/07 11:35:20;;;;;;;80.90;21.30;;;;;;;4.14;96.78;90830.19;5128831;27;20031;-65
2022/01/07 11:37:53;;;;;;;26.00;15.32;;;;;;;4.18;95.93;90836.47;5128656;27;20818;-65
2022/01/07 11:40:27;;;;;;;;;;;;;;;3.94;97.40;90832.91;5128685;27;20023;-64
2022/01/07 11:42:53;;;;;;;19.67;9.68;;;;;;;4.00;97.94;90826.56;5127134;28;19976;-65
2022/01/07 11:45:30;;;;;;;36.80;11.35;;;;;;;4.18;96.88;90842.53;5128585;27;20496;-65
2022/01/07 11:48:05;;;;;;;60.28;16.90;;;;;;;4.33;97.97;90827.69;5128476;27;20039;-66
2022/01/07 11:50:30;;;;;;;26.70;10.38;;;;;;;3.99;97.94;90832.88;5128443;27;20118;-65